Time;durP1;ratioP1;P1;durP2;ratioP2;P2;SDS_P1;SDS_P2;PMS_P1;PMS_P2;Temp;Humidity;BMP_temperature;BMP_pressure;BME280_temperature;BME280_humidity;BME280_pressure;Samples;Min_cycle;Max_cycle;Signal;HPM_P1;HPM_P2
2023/01/30 00:00:29;;;;;;;57.08;36.75;;;5.40;99.90;;;;;;5066928;28;20339;-84
2023/01/30 00:02:54;;;;;;;55.30;36.28;;;5.40;99.90;;;;;;5066985;28;20044;-84
2023/01/30 00:05:20;;;;;;;53.78;34.92;;;5.40;99.90;;;;;;5050880;28;20120;-84
2023/01/30 00:07:46;;;;;;;55.33;36.65;;;5.40;99.90;;;;;;5068465;28;20044;-85
2023/01/30 00:10:12;;;;;;;57.58;36.80;;;5.40;99.90;;;;;;5054071;28;20078;-84
2023/01/30 00:12:38;;;;;;;56.08;36.40;;;5.30;99.90;;;;;;5067650;28;20173;-85
2023/01/30 00:15:05;;;;;;;54.88;35.28;;;5.40;99.90;;;;;;5067209;28;20049;-85
2023/01/30 00:17:30;;;;;;;52.35;33.92;;;5.50;99.90;;;;;;5061519;28;20131;-85
2023/01/30 00:19:56;;;;;;;53.20;35.60;;;5.40;99.90;;;;;;5060613;28;20127;-84
2023/01/30 00:22:22;;;;;;;52.67;34.95;;;5.50;99.90;;;;;;5066046;28;20103;-83
2023/01/30 00:24:47;;;;;;;52.33;33.65;;;5.60;99.90;;;;;;5049117;28;20040;-79
2023/01/30 00:27:14;;;;;;;46.40;29.40;;;5.60;99.90;;;;;;5064036;28;20049;-80
2023/01/30 00:29:39;;;;;;;55.70;35.22;;;5.70;99.90;;;;;;5064322;28;20059;-82
2023/01/30 00:32:05;;;;;;;50.00;33.17;;;5.70;99.90;;;;;;5066869;28;20048;-82
2023/01/30 00:34:31;;;;;;;52.55;35.03;;;5.70;99.90;;;;;;5057183;28;20120;-81
2023/01/30 00:36:57;;;;;;;49.45;33.40;;;5.70;99.90;;;;;;5047620;28;20119;-82
2023/01/30 00:39:22;;;;;;;49.22;33.50;;;5.70;99.90;;;;;;5060558;28;20098;-83
2023/01/30 00:47:16;;;;;;;45.50;31.65;;;5.90;99.90;;;;;;5067685;28;20103;-81
2023/01/30 00:49:42;;;;;;;45.03;31.10;;;5.90;99.90;;;;;;5064767;28;20072;-82
2023/01/30 00:52:08;;;;;;;40.35;27.35;;;6.00;99.90;;;;;;5064037;28;20094;-82
2023/01/30 00:54:33;;;;;;;43.47;29.10;;;6.10;99.90;;;;;;5047966;28;20048;-82
2023/01/30 00:56:59;;;;;;;41.13;26.55;;;6.20;99.90;;;;;;5066528;28;20090;-82
2023/01/30 00:59:26;;;;;;;39.88;25.73;;;6.30;99.90;;;;;;5049369;28;20132;-82
2023/01/30 01:01:52;;;;;;;37.83;25.23;;;6.30;99.90;;;;;;5064481;28;20056;-82
2023/01/30 01:04:17;;;;;;;40.05;27.38;;;6.40;99.90;;;;;;5046377;28;20116;-82
2023/01/30 01:06:43;;;;;;;37.88;24.77;;;6.40;99.90;;;;;;5068828;28;20101;-84
2023/01/30 01:09:09;;;;;;;38.70;26.60;;;6.50;99.90;;;;;;5060894;28;20124;-82
2023/01/30 01:11:35;;;;;;;36.65;25.85;;;6.50;99.90;;;;;;5065111;28;20068;-82
2023/01/30 01:14:02;;;;;;;36.35;23.85;;;6.60;99.90;;;;;;5055648;28;20037;-82
2023/01/30 01:16:30;;;;;;;37.35;26.17;;;6.60;99.90;;;;;;5056815;28;20033;-83
2023/01/30 01:18:56;;;;;;;38.13;24.83;;;6.60;99.90;;;;;;5063487;28;20041;-80
2023/01/30 01:21:22;;;;;;;39.30;26.17;;;6.60;99.90;;;;;;5067925;28;20484;-82
2023/01/30 01:23:58;;;;;;;37.63;22.85;;;6.60;99.90;;;;;;5049072;28;20048;-82
2023/01/30 01:26:24;;;;;;;34.70;21.92;;;6.70;99.90;;;;;;5067366;28;20114;-82
2023/01/30 01:28:53;;;;;;;41.58;26.33;;;6.70;99.90;;;;;;5060697;28;20508;-82
2023/01/30 01:31:19;;;;;;;39.53;26.83;;;6.70;99.90;;;;;;5060631;28;20040;-81
2023/01/30 01:33:45;;;;;;;40.75;26.25;;;6.70;99.90;;;;;;5067396;28;20118;-81
2023/01/30 01:36:10;;;;;;;29.63;18.65;;;6.60;99.90;;;;;;5064322;28;20091;-80
2023/01/30 01:38:37;;;;;;;36.90;25.88;;;6.70;99.90;;;;;;5040289;28;20064;-79
2023/01/30 01:41:08;;;;;;;43.60;27.15;;;6.60;99.90;;;;;;5065503;28;20566;-81
2023/01/30 01:43:37;;;;;;;41.13;26.23;;;6.60;99.90;;;;;;5066171;28;20059;-81
2023/01/30 01:46:17;;;;;;;40.55;25.50;;;6.60;99.90;;;;;;5063445;28;20178;-81
2023/01/30 01:48:50;;;;;;;37.65;24.90;;;6.60;99.90;;;;;;5064157;28;20040;-82
2023/01/30 01:51:24;;;;;;;39.15;26.38;;;6.60;99.90;;;;;;5065103;28;20060;-82
2023/01/30 01:53:56;;;;;;;33.45;22.23;;;6.60;99.90;;;;;;5060161;28;20087;-85
2023/01/30 01:56:21;;;;;;;;;;;6.60;99.90;;;;;;5067702;28;20067;-82
2023/01/30 01:58:53;;;;;;;34.17;22.10;;;6.60;99.90;;;;;;5062806;28;19921;-82
2023/01/30 02:01:19;;;;;;;31.35;20.52;;;6.60;99.90;;;;;;5089798;28;20049;-82
2023/01/30 02:03:55;;;;;;;35.60;23.02;;;6.60;99.90;;;;;;5065423;28;20079;-82
2023/01/30 02:06:21;;;;;;;34.78;22.08;;;6.60;99.90;;;;;;5089711;28;20080;-79
2023/01/30 02:08:51;;;;;;;30.27;20.30;;;6.50;99.90;;;;;;5047383;28;20061;-81
2023/01/30 02:11:32;;;;;;;30.45;19.67;;;6.60;99.90;;;;;;5089412;28;20065;-82
2023/01/30 02:14:00;;;;;;;26.95;17.55;;;6.60;99.90;;;;;;5068027;28;20052;-79
2023/01/30 02:16:26;;;;;;;27.33;17.52;;;6.60;99.90;;;;;;5069029;28;20044;-81
2023/01/30 02:18:51;;;;;;;21.42;13.65;;;6.60;99.90;;;;;;5046806;28;20117;-79
2023/01/30 02:21:59;;;;;;;20.75;14.55;;;6.60;99.90;;;;;;5079858;28;20049;-80
2023/01/30 02:24:51;;;;;;;19.45;12.95;;;6.60;99.90;;;;;;5066571;28;20109;-79
2023/01/30 02:27:47;;;;;;;17.73;10.75;;;6.70;99.90;;;;;;5067097;28;20084;-79
2023/01/30 02:30:50;;;;;;;16.55;10.52;;;6.70;99.90;;;;;;5048111;28;20067;-79
2023/01/30 02:33:31;;;;;;;18.58;10.57;;;6.80;99.90;;;;;;5069891;28;20052;-78
2023/01/30 02:36:02;;;;;;;16.35;9.30;;;6.70;99.90;;;;;;5067785;28;20048;-80
2023/01/30 02:38:47;;;;;;;16.08;8.70;;;6.70;99.90;;;;;;5068320;28;20545;-78
2023/01/30 02:41:12;;;;;;;14.75;8.60;;;6.80;99.90;;;;;;5065427;28;20063;-80
2023/01/30 02:44:18;;;;;;;15.90;8.60;;;6.80;99.90;;;;;;5068335;28;20052;-82
2023/01/30 02:47:10;;;;;;;13.73;6.47;;;6.80;99.90;;;;;;5065336;28;20477;-79
2023/01/30 02:49:47;;;;;;;12.73;6.90;;;6.80;99.90;;;;;;5060425;28;20071;-78
2023/01/30 02:52:14;;;;;;;12.98;6.30;;;6.80;99.90;;;;;;5083682;28;20056;-79
2023/01/30 02:54:39;;;;;;;13.93;7.38;;;6.80;99.90;;;;;;5069885;28;20052;-79
2023/01/30 02:57:22;;;;;;;14.65;7.07;;;6.80;99.90;;;;;;5068011;28;20534;-80
2023/01/30 02:59:53;;;;;;;12.75;6.80;;;6.80;99.90;;;;;;5063995;28;20062;-78
2023/01/30 03:02:45;;;;;;;12.45;6.32;;;6.80;99.90;;;;;;5068768;28;20055;-76
2023/01/30 03:05:36;;;;;;;14.88;6.55;;;6.80;99.90;;;;;;5066287;28;20051;-75
2023/01/30 03:08:41;;;;;;;13.18;6.30;;;6.90;99.90;;;;;;5068066;28;20102;-76
2023/01/30 03:11:09;;;;;;;9.50;4.47;;;6.90;99.90;;;;;;5063711;28;20110;-83
2023/01/30 03:13:53;;;;;;;13.68;7.10;;;6.90;99.90;;;;;;5083595;28;20041;-78
2023/01/30 03:16:36;;;;;;;14.43;6.47;;;6.90;99.90;;;;;;5064724;28;20123;-82
2023/01/30 03:19:05;;;;;;;15.43;6.30;;;6.90;99.90;;;;;;5066025;28;20105;-77
2023/01/30 03:21:32;;;;;;;13.23;5.78;;;6.90;99.90;;;;;;5067617;28;20055;-78
2023/01/30 03:23:57;;;;;;;14.77;6.63;;;6.90;99.90;;;;;;5048310;28;20049;-76
2023/01/30 03:26:31;;;;;;;16.63;6.63;;;6.90;99.90;;;;;;5069091;28;20052;-76
2023/01/30 03:28:57;;;;;;;17.98;7.13;;;7.00;99.90;;;;;;5061948;28;20040;-77
2023/01/30 03:31:23;;;;;;;19.40;7.03;;;6.90;99.90;;;;;;5065677;28;20120;-77
2023/01/30 03:33:48;;;;;;;18.38;6.72;;;6.90;99.90;;;;;;5067019;28;20135;-76
2023/01/30 03:36:14;;;;;;;19.02;6.32;;;6.90;99.90;;;;;;5065895;28;20045;-76
2023/01/30 03:38:40;;;;;;;20.25;6.65;;;7.00;99.90;;;;;;5065881;28;20052;-79
2023/01/30 03:41:06;;;;;;;18.05;6.63;;;6.90;99.90;;;;;;5058068;28;20422;-76
2023/01/30 03:43:31;;;;;;;19.10;6.10;;;7.00;99.90;;;;;;5070024;28;20068;-76
2023/01/30 03:45:57;;;;;;;17.67;6.45;;;7.00;99.90;;;;;;5063513;28;20447;-75
2023/01/30 03:48:23;;;;;;;16.25;5.93;;;7.00;99.90;;;;;;5049663;28;20054;-76
2023/01/30 03:50:48;;;;;;;19.25;6.10;;;7.00;99.90;;;;;;5067635;28;20044;-77
2023/01/30 03:53:14;;;;;;;18.17;5.78;;;7.00;99.90;;;;;;5063166;28;20048;-78
2023/01/30 03:55:40;;;;;;;18.25;5.95;;;7.00;99.90;;;;;;5068611;28;20083;-78
2023/01/30 03:58:05;;;;;;;19.92;5.20;;;7.00;99.90;;;;;;5063657;28;20044;-75
2023/01/30 04:00:32;;;;;;;22.17;5.18;;;7.00;99.90;;;;;;5072200;28;20133;-76
2023/01/30 04:02:57;;;;;;;16.88;4.80;;;7.00;99.90;;;;;;5068385;28;20147;-79
2023/01/30 04:05:24;;;;;;;18.45;5.18;;;7.00;99.90;;;;;;5064309;28;20099;-76
2023/01/30 04:07:50;;;;;;;19.27;4.68;;;6.90;99.90;;;;;;5068682;28;20137;-75
2023/01/30 04:10:18;;;;;;;16.63;4.38;;;7.00;99.90;;;;;;5060296;28;20052;-78
2023/01/30 04:12:45;;;;;;;20.45;5.10;;;7.00;99.90;;;;;;5052889;28;20408;-75
2023/01/30 04:15:11;;;;;;;18.35;4.25;;;7.00;99.90;;;;;;5047045;28;20124;-78
2023/01/30 04:17:37;;;;;;;19.80;4.00;;;7.00;99.90;;;;;;5056549;28;20052;-79
2023/01/30 04:20:03;;;;;;;19.75;4.80;;;7.00;99.90;;;;;;5061574;28;20109;-78
2023/01/30 04:22:29;;;;;;;18.10;4.22;;;6.90;99.90;;;;;;5094703;28;20052;-76
2023/01/30 04:24:54;;;;;;;17.75;4.15;;;6.90;99.90;;;;;;5067327;28;20044;-75
2023/01/30 04:27:20;;;;;;;16.77;4.10;;;7.00;99.90;;;;;;5065137;28;20048;-75
2023/01/30 04:29:46;;;;;;;20.00;4.60;;;6.90;99.90;;;;;;5062876;28;20048;-79
2023/01/30 04:32:12;;;;;;;18.55;4.35;;;6.90;99.90;;;;;;5049575;28;20056;-77
2023/01/30 04:34:37;;;;;;;18.55;4.72;;;7.00;99.90;;;;;;5067052;28;20056;-76
2023/01/30 04:37:03;;;;;;;17.67;4.97;;;7.00;99.90;;;;;;5064159;28;20779;-76
2023/01/30 04:39:29;;;;;;;20.77;5.15;;;7.00;99.90;;;;;;5059681;28;20045;-76
2023/01/30 04:41:54;;;;;;;24.92;5.43;;;7.00;99.90;;;;;;5069098;28;20052;-78
2023/01/30 04:44:20;;;;;;;20.80;5.50;;;6.90;99.90;;;;;;5058681;28;20052;-78
2023/01/30 04:46:46;;;;;;;20.02;4.78;;;6.90;99.90;;;;;;5064443;28;20166;-81
2023/01/30 04:49:11;;;;;;;19.10;5.00;;;6.80;99.90;;;;;;5064022;28;20053;-75
2023/01/30 04:51:37;;;;;;;20.77;5.07;;;6.80;99.90;;;;;;5066982;28;20033;-78
2023/01/30 04:54:03;;;;;;;23.23;4.88;;;6.70;99.90;;;;;;5066912;28;20551;-75
2023/01/30 04:56:29;;;;;;;25.30;4.72;;;6.70;99.90;;;;;;5061283;28;20040;-76
2023/01/30 04:58:55;;;;;;;23.63;4.55;;;6.70;99.90;;;;;;5061654;28;20404;-78
2023/01/30 05:01:22;;;;;;;19.73;4.35;;;6.70;99.90;;;;;;5049540;28;20465;-75
2023/01/30 05:03:52;;;;;;;20.10;4.65;;;6.70;99.90;;;;;;5063599;28;20040;-78
2023/01/30 05:06:19;;;;;;;25.35;4.70;;;6.60;99.90;;;;;;5059713;28;20087;-76
2023/01/30 05:08:49;;;;;;;22.45;4.65;;;6.60;99.90;;;;;;5059245;28;20519;-80
2023/01/30 05:11:15;;;;;;;22.02;4.30;;;6.60;99.90;;;;;;5066333;28;20546;-81
2023/01/30 05:13:42;;;;;;;25.20;4.28;;;6.60;99.90;;;;;;5048813;28;20048;-81
2023/01/30 05:16:09;;;;;;;20.95;4.32;;;6.60;99.90;;;;;;5066080;28;20049;-77
2023/01/30 05:18:34;;;;;;;23.77;4.50;;;6.60;99.90;;;;;;5063515;28;20063;-81
2023/01/30 05:21:20;;;;;;;20.60;4.20;;;6.50;99.90;;;;;;5082981;28;20485;-78
2023/01/30 05:23:46;;;;;;;23.58;4.65;;;6.50;99.90;;;;;;5065355;28;20373;-83
2023/01/30 05:26:13;;;;;;;19.58;4.05;;;6.50;99.90;;;;;;5067117;28;20151;-81
2023/01/30 05:28:40;;;;;;;21.63;4.03;;;6.50;99.90;;;;;;5059252;28;20056;-77
2023/01/30 05:31:11;;;;;;;19.23;4.22;;;6.50;99.90;;;;;;5086774;28;20049;-80
2023/01/30 05:33:38;;;;;;;18.58;4.20;;;6.50;99.90;;;;;;5062497;28;20128;-81
2023/01/30 05:36:05;;;;;;;22.52;4.10;;;6.50;99.90;;;;;;5064075;28;20056;-77
2023/01/30 05:38:30;;;;;;;21.77;4.30;;;6.40;99.90;;;;;;5062445;28;20084;-81
2023/01/30 05:41:07;;;;;;;21.90;4.25;;;6.40;99.90;;;;;;5042331;28;20077;-79
2023/01/30 05:43:34;;;;;;;21.90;3.95;;;6.40;99.90;;;;;;5064386;28;20068;-80
2023/01/30 05:46:01;;;;;;;25.80;4.70;;;6.40;99.90;;;;;;5064463;28;20124;-78
2023/01/30 05:48:27;;;;;;;22.17;4.22;;;6.40;99.90;;;;;;5046977;28;20111;-79
2023/01/30 05:50:55;;;;;;;18.58;4.10;;;6.30;99.90;;;;;;5053723;28;20049;-80
2023/01/30 05:53:22;;;;;;;24.30;4.25;;;6.30;99.90;;;;;;5065923;28;20045;-79
2023/01/30 05:55:55;;;;;;;25.10;4.40;;;6.30;99.90;;;;;;5042222;28;20060;-77
2023/01/30 05:58:22;;;;;;;23.02;4.20;;;6.20;99.90;;;;;;5083826;28;20053;-80
2023/01/30 06:00:47;;;;;;;24.15;4.47;;;6.20;99.90;;;;;;5069171;28;20048;-77
2023/01/30 06:03:13;;;;;;;23.63;4.25;;;6.20;99.90;;;;;;5066489;28;20044;-79
2023/01/30 06:05:39;;;;;;;22.00;4.30;;;6.20;99.90;;;;;;5059148;28;20064;-79
2023/01/30 06:08:05;;;;;;;24.45;4.05;;;6.10;99.90;;;;;;5086395;28;20048;-81
2023/01/30 06:10:30;;;;;;;24.85;4.53;;;6.10;99.90;;;;;;5048725;28;20099;-77
2023/01/30 06:12:56;;;;;;;23.48;4.22;;;6.10;99.90;;;;;;5054771;28;20056;-76
2023/01/30 06:15:22;;;;;;;23.38;4.30;;;6.10;99.90;;;;;;5033197;28;20136;-77
2023/01/30 06:17:47;;;;;;;23.90;4.35;;;6.10;99.90;;;;;;5077608;28;20055;-79
2023/01/30 06:20:13;;;;;;;19.42;3.67;;;6.00;99.90;;;;;;5032637;28;20046;-84
2023/01/30 06:22:39;;;;;;;23.25;4.43;;;6.00;99.90;;;;;;5089626;28;20107;-76
2023/01/30 06:25:05;;;;;;;24.30;4.60;;;5.90;99.90;;;;;;5061395;28;20063;-77
2023/01/30 06:27:31;;;;;;;22.77;4.50;;;5.90;99.90;;;;;;5057770;28;20036;-77
2023/01/30 06:29:56;;;;;;;25.95;4.45;;;5.90;99.90;;;;;;5041059;28;20482;-76
2023/01/30 06:32:22;;;;;;;23.13;4.35;;;5.80;99.90;;;;;;5060465;28;20072;-79
2023/01/30 06:34:48;;;;;;;21.70;4.10;;;5.80;99.90;;;;;;5063680;28;20060;-82
2023/01/30 06:37:13;;;;;;;21.50;4.10;;;5.70;99.90;;;;;;5027713;28;20057;-78
2023/01/30 06:39:39;;;;;;;22.48;4.35;;;5.70;99.90;;;;;;5044154;28;20040;-84
2023/01/30 06:42:06;;;;;;;21.95;4.15;;;5.80;99.90;;;;;;5063167;28;20052;-79
2023/01/30 06:44:31;;;;;;;23.13;4.40;;;5.80;99.90;;;;;;5060903;28;20491;-78
2023/01/30 06:46:57;;;;;;;20.63;4.05;;;5.80;99.90;;;;;;5067022;28;20056;-80
2023/01/30 06:49:23;;;;;;;24.25;4.30;;;5.80;99.90;;;;;;5064047;28;20057;-81
2023/01/30 06:51:48;;;;;;;21.80;3.83;;;5.80;99.90;;;;;;5054971;28;20087;-82
2023/01/30 06:54:14;;;;;;;23.13;4.18;;;6.20;99.90;;;;;;5069422;28;20048;-82
2023/01/30 06:56:40;;;;;;;18.27;3.63;;;5.80;99.90;;;;;;5059824;28;20106;-82
2023/01/30 06:59:06;;;;;;;24.63;4.43;;;5.80;99.90;;;;;;5064596;28;20456;-79
2023/01/30 07:01:32;;;;;;;22.30;4.22;;;5.80;99.90;;;;;;5040128;28;20052;-78
2023/01/30 07:03:57;;;;;;;26.35;4.55;;;5.80;99.90;;;;;;5021248;28;20056;-80
2023/01/30 07:06:25;;;;;;;24.42;3.97;;;5.70;99.90;;;;;;5068222;28;20420;-78
2023/01/30 07:08:51;;;;;;;21.13;4.07;;;5.80;99.90;;;;;;5059931;28;20052;-80
2023/01/30 07:11:17;;;;;;;19.40;4.03;;;5.80;99.90;;;;;;5068221;28;20488;-80
2023/01/30 07:13:43;;;;;;;25.95;4.55;;;5.80;99.90;;;;;;5064964;28;20125;-79
2023/01/30 07:16:09;;;;;;;22.42;4.20;;;5.80;99.90;;;;;;5049432;28;20582;-83
2023/01/30 07:18:35;;;;;;;24.83;4.68;;;5.80;99.90;;;;;;5063422;28;20045;-80
2023/01/30 07:21:01;;;;;;;20.40;3.75;;;5.80;99.90;;;;;;5069059;28;20062;-80
2023/01/30 07:23:27;;;;;;;21.55;4.35;;;5.90;99.90;;;;;;5068192;28;20422;-79
2023/01/30 07:25:53;;;;;;;27.25;4.60;;;5.90;99.90;;;;;;5033989;28;20556;-80
2023/01/30 07:28:19;;;;;;;22.20;4.20;;;6.00;99.90;;;;;;5050947;28;20061;-82
2023/01/30 07:30:44;;;;;;;23.27;3.90;;;5.90;99.90;;;;;;5047772;28;20045;-83
2023/01/30 07:33:10;;;;;;;23.38;4.53;;;5.90;99.90;;;;;;5063906;28;20049;-80
2023/01/30 07:35:39;;;;;;;21.13;3.90;;;5.90;99.90;;;;;;5067063;28;20048;-82
2023/01/30 07:38:05;;;;;;;23.60;4.00;;;6.00;99.90;;;;;;5051191;28;20045;-77
2023/01/30 07:40:30;;;;;;;22.65;4.25;;;6.00;99.90;;;;;;5060919;28;20071;-82
2023/01/30 07:43:08;;;;;;;21.90;4.93;;;6.00;99.90;;;;;;5061510;28;20071;-81
2023/01/30 07:45:40;;;;;;;26.88;4.15;;;5.50;99.90;;;;;;5068720;28;20084;-82
2023/01/30 07:48:07;;;;;;;24.10;4.30;;;5.90;99.90;;;;;;5062942;28;20052;-77
2023/01/30 07:50:33;;;;;;;27.58;4.90;;;5.90;99.90;;;;;;5049021;28;20063;-82
2023/01/30 07:53:01;;;;;;;23.73;4.35;;;5.80;99.90;;;;;;5063254;28;20504;-79
2023/01/30 07:55:27;;;;;;;21.42;4.18;;;5.90;99.90;;;;;;5087369;28;20492;-81
2023/01/30 07:57:53;;;;;;;23.60;4.78;;;5.80;99.90;;;;;;5065993;28;20052;-82
2023/01/30 08:00:19;;;;;;;24.50;4.78;;;5.90;99.90;;;;;;5061978;28;20101;-80
2023/01/30 08:02:45;;;;;;;28.45;4.75;;;5.90;99.90;;;;;;5065616;28;20049;-79
2023/01/30 08:05:10;;;;;;;25.17;4.45;;;5.90;99.90;;;;;;5030996;28;20051;-80
2023/01/30 08:07:36;;;;;;;21.73;4.35;;;6.00;99.90;;;;;;5067145;28;20075;-80
2023/01/30 08:10:02;;;;;;;24.17;4.50;;;6.00;99.90;;;;;;5042269;28;20053;-77
2023/01/30 08:12:28;;;;;;;26.55;4.60;;;6.00;99.90;;;;;;5057180;28;20455;-81
2023/01/30 08:14:54;;;;;;;23.95;4.47;;;6.00;99.90;;;;;;5078694;28;20040;-80
2023/01/30 08:17:20;;;;;;;26.65;4.40;;;6.00;99.90;;;;;;5051985;28;20484;-80
2023/01/30 08:19:46;;;;;;;24.55;4.40;;;6.10;99.90;;;;;;5060149;28;20044;-81
2023/01/30 08:22:13;;;;;;;26.15;4.32;;;6.10;99.90;;;;;;5062980;28;20055;-82
2023/01/30 08:24:39;;;;;;;25.23;4.15;;;6.10;99.90;;;;;;5068548;28;20400;-83
2023/01/30 08:27:04;;;;;;;27.75;4.45;;;6.10;99.90;;;;;;5061909;28;20040;-83
2023/01/30 08:29:30;;;;;;;25.23;4.38;;;6.20;99.90;;;;;;5040840;28;20052;-79
2023/01/30 08:31:57;;;;;;;22.02;4.13;;;6.20;99.90;;;;;;5056052;28;20055;-82
2023/01/30 08:34:23;;;;;;;21.20;4.50;;;6.20;99.90;;;;;;5089528;28;20122;-82
2023/01/30 08:36:50;;;;;;;27.05;4.57;;;6.30;99.90;;;;;;5054797;28;20446;-81
2023/01/30 08:39:16;;;;;;;20.20;4.07;;;6.20;99.90;;;;;;5044566;28;20064;-81
2023/01/30 08:41:42;;;;;;;31.05;4.68;;;6.20;99.90;;;;;;5060086;28;20060;-82
2023/01/30 08:44:09;;;;;;;25.63;4.32;;;6.30;99.90;;;;;;5066057;28;20075;-79
2023/01/30 08:46:34;;;;;;;22.63;4.07;;;6.20;99.90;;;;;;5064171;28;20060;-81
2023/01/30 08:49:00;;;;;;;20.75;4.32;;;6.20;99.90;;;;;;5045752;28;20079;-80
2023/01/30 08:51:26;;;;;;;21.23;4.35;;;6.20;99.90;;;;;;5049335;28;20048;-81
2023/01/30 08:53:51;;;;;;;23.80;4.32;;;6.20;99.90;;;;;;5065731;28;20056;-80
2023/01/30 08:56:17;;;;;;;25.27;4.78;;;6.20;99.90;;;;;;5068003;28;20127;-82
2023/01/30 08:58:45;;;;;;;26.17;5.15;;;6.20;99.90;;;;;;5042069;28;20446;-77
2023/01/30 09:01:11;;;;;;;25.45;4.80;;;6.30;99.90;;;;;;5049646;28;20053;-79
2023/01/30 09:03:37;;;;;;;30.55;4.38;;;6.30;99.90;;;;;;5057878;28;20098;-79
2023/01/30 09:06:03;;;;;;;24.67;4.53;;;6.30;99.90;;;;;;5055453;28;20488;-78
2023/01/30 09:08:29;;;;;;;20.75;4.38;;;6.30;99.90;;;;;;5058395;28;20127;-82
2023/01/30 09:11:04;;;;;;;29.13;5.20;;;6.30;99.90;;;;;;4961009;28;20628;-81
2023/01/30 09:13:31;;;;;;;23.30;4.07;;;6.30;99.90;;;;;;5033712;28;20473;-78
2023/01/30 09:15:57;;;;;;;25.77;4.25;;;6.40;99.90;;;;;;5048793;28;20539;-80
2023/01/30 09:18:23;;;;;;;31.30;5.00;;;6.40;99.90;;;;;;5046745;28;20064;-81
2023/01/30 09:20:49;;;;;;;27.15;4.97;;;6.40;99.90;;;;;;5050429;28;20508;-82
2023/01/30 09:23:15;;;;;;;24.35;4.75;;;6.40;99.90;;;;;;5053132;28;20053;-82
2023/01/30 09:25:44;;;;;;;24.75;4.60;;;6.50;99.90;;;;;;5049561;28;20045;-79
2023/01/30 09:28:09;;;;;;;18.35;3.78;;;6.50;99.90;;;;;;5052328;28;20480;-80
2023/01/30 09:30:38;;;;;;;26.35;4.50;;;6.60;99.90;;;;;;5034528;28;20100;-81
2023/01/30 09:33:04;;;;;;;22.30;4.75;;;6.60;99.90;;;;;;5033597;28;20427;-81
2023/01/30 09:35:30;;;;;;;23.50;4.40;;;6.60;99.90;;;;;;5034084;28;20141;-82
2023/01/30 09:37:57;;;;;;;20.92;3.92;;;6.70;99.90;;;;;;5079930;28;20392;-81
2023/01/30 09:40:26;;;;;;;20.52;4.50;;;6.80;99.90;;;;;;5048370;28;20063;-76
2023/01/30 09:43:09;;;;;;;22.02;4.47;;;6.80;99.90;;;;;;5048567;28;20068;-79
2023/01/30 09:46:08;;;;;;;24.95;4.47;;;6.80;99.90;;;;;;5077864;28;20053;-83
2023/01/30 09:48:52;;;;;;;23.27;4.63;;;6.90;99.90;;;;;;5049252;28;20140;-81
2023/01/30 09:51:36;;;;;;;26.80;5.03;;;6.90;99.90;;;;;;5051502;28;20099;-79
2023/01/30 09:54:28;;;;;;;24.70;4.50;;;6.90;99.90;;;;;;5052546;28;20055;-79
2023/01/30 09:57:17;;;;;;;23.95;4.40;;;6.90;99.90;;;;;;5075252;28;20134;-81
2023/01/30 10:00:22;;;;;;;22.60;4.45;;;7.00;99.90;;;;;;5044752;28;20072;-81
2023/01/30 10:03:10;;;;;;;20.85;4.40;;;7.10;99.90;;;;;;5063200;28;20095;-82
2023/01/30 10:05:44;;;;;;;22.10;4.63;;;7.10;99.90;;;;;;5049074;28;20106;-83
2023/01/30 10:08:46;;;;;;;26.02;4.90;;;7.20;99.90;;;;;;5068479;28;20084;-82
2023/01/30 10:11:24;;;;;;;23.88;4.10;;;7.20;99.90;;;;;;5051919;28;20577;-81
2023/01/30 10:13:58;;;;;;;20.90;4.30;;;7.10;99.90;;;;;;5045994;28;20511;-80
2023/01/30 10:16:35;;;;;;;24.80;4.72;;;7.00;99.90;;;;;;5066257;28;20155;-84
2023/01/30 10:19:16;;;;;;;25.63;4.55;;;6.90;99.90;;;;;;5064000;28;20048;-83
2023/01/30 10:21:56;;;;;;;28.77;4.65;;;6.90;99.90;;;;;;5084352;28;20115;-82
2023/01/30 10:24:29;;;;;;;25.55;4.88;;;6.80;99.90;;;;;;5049195;28;20056;-82
2023/01/30 10:26:55;;;;;;;22.52;4.35;;;6.80;99.90;;;;;;5052534;28;20052;-85
2023/01/30 10:29:29;;;;;;;23.25;4.20;;;6.80;99.90;;;;;;5049094;28;20118;-80
2023/01/30 10:32:00;;;;;;;23.17;5.03;;;6.70;99.90;;;;;;5067136;28;20378;-84
2023/01/30 10:34:26;;;;;;;26.52;4.45;;;6.90;99.90;;;;;;5048134;28;20053;-83
2023/01/30 10:37:12;;;;;;;29.23;5.65;;;6.90;99.90;;;;;;5051817;28;20104;-80
2023/01/30 10:40:01;;;;;;;17.80;3.53;;;7.10;99.90;;;;;;5047617;28;20481;-82
2023/01/30 10:42:45;;;;;;;24.20;5.07;;;7.20;99.90;;;;;;5042892;28;20049;-82
2023/01/30 10:45:16;;;;;;;28.33;5.05;;;7.30;99.90;;;;;;5046998;28;20041;-81
2023/01/30 10:48:01;;;;;;;25.50;4.88;;;7.30;99.90;;;;;;5050651;28;20056;-81
2023/01/30 10:50:52;;;;;;;23.73;4.72;;;7.40;99.90;;;;;;5044429;28;20053;-82
2023/01/30 10:53:41;;;;;;;20.50;4.80;;;7.40;99.90;;;;;;5051319;28;20052;-82
2023/01/30 10:56:41;;;;;;;24.85;4.40;;;7.50;99.90;;;;;;5033492;28;20061;-77
2023/01/30 10:59:42;;;;;;;26.67;5.05;;;7.50;99.90;;;;;;5045246;28;20506;-82
2023/01/30 11:02:47;;;;;;;23.95;4.70;;;7.40;99.90;;;;;;5046453;28;20092;-83
2023/01/30 11:05:23;;;;;;;28.42;5.05;;;7.40;99.90;;;;;;5019262;28;20057;-80
2023/01/30 11:07:49;;;;;;;22.60;4.20;;;7.30;99.90;;;;;;5084021;28;20049;-81
2023/01/30 11:10:24;;;;;;;24.20;4.60;;;7.20;99.90;;;;;;5044904;28;20531;-80
2023/01/30 11:13:19;;;;;;;24.70;4.53;;;6.90;99.90;;;;;;5046111;28;20067;-79
2023/01/30 11:15:49;;;;;;;27.27;5.00;;;6.80;99.90;;;;;;5049160;28;20060;-83
2023/01/30 11:18:17;;;;;;;24.23;4.38;;;6.60;99.90;;;;;;5048343;28;20549;-83
2023/01/30 11:20:50;;;;;;;22.40;3.83;;;6.50;99.90;;;;;;5078621;28;20045;-81
2023/01/30 11:23:34;;;;;;;20.88;3.88;;;6.40;99.90;;;;;;5051521;28;20393;-80
2023/01/30 11:26:02;;;;;;;22.67;4.00;;;6.40;99.90;;;;;;5080532;28;20607;-77
2023/01/30 11:28:34;;;;;;;18.27;3.53;;;6.50;99.90;;;;;;5065712;28;20346;-78
2023/01/30 11:31:00;;;;;;;21.33;3.65;;;6.60;99.90;;;;;;5045616;28;20045;-80
2023/01/30 11:33:37;;;;;;;23.95;4.20;;;6.70;99.90;;;;;;5044641;28;20124;-78
2023/01/30 11:36:27;;;;;;;20.48;3.63;;;6.80;99.90;;;;;;5043292;28;20445;-82
2023/01/30 11:39:03;;;;;;;16.65;3.33;;;6.90;99.90;;;;;;5037178;28;20061;-78
2023/01/30 11:41:30;;;;;;;13.35;2.83;;;7.00;99.90;;;;;;5041893;28;20045;-79
2023/01/30 11:44:01;;;;;;;16.67;3.42;;;7.00;99.90;;;;;;5042875;28;20516;-81
2023/01/30 11:46:31;;;;;;;16.73;3.47;;;7.10;99.90;;;;;;5042189;28;20065;-77
2023/01/30 11:49:11;;;;;;;20.90;3.92;;;7.20;99.90;;;;;;5040388;28;20060;-79
2023/01/30 11:51:38;;;;;;;16.77;3.58;;;7.30;99.90;;;;;;5043486;28;20044;-81
2023/01/30 11:54:16;;;;;;;15.15;3.28;;;7.40;99.90;;;;;;5041398;28;20550;-80
2023/01/30 11:56:54;;;;;;;17.85;3.38;;;7.30;99.90;;;;;;5048754;28;20056;-81
2023/01/30 11:59:37;;;;;;;16.00;3.17;;;7.30;99.90;;;;;;5074497;28;20088;-82
2023/01/30 12:02:04;;;;;;;14.50;3.10;;;7.20;99.90;;;;;;5049878;28;20554;-80
2023/01/30 12:04:30;;;;;;;17.08;3.17;;;7.20;99.90;;;;;;5074720;28;20037;-83
2023/01/30 12:07:25;;;;;;;10.57;2.80;;;7.20;99.90;;;;;;5065020;28;20074;-82
2023/01/30 12:09:53;;;;;;;10.90;2.10;;;7.20;99.90;;;;;;5042883;28;20080;-83
2023/01/30 12:12:46;;;;;;;13.85;3.05;;;7.10;99.90;;;;;;5077272;28;20079;-83
2023/01/30 12:15:33;;;;;;;11.32;2.47;;;7.00;99.90;;;;;;5050042;28;20123;-83
2023/01/30 12:18:18;;;;;;;16.45;3.17;;;7.10;99.90;;;;;;5044201;28;20041;-84
2023/01/30 12:21:22;;;;;;;14.25;2.42;;;7.20;99.90;;;;;;5043197;28;20436;-80
2023/01/30 12:24:08;;;;;;;12.07;2.50;;;7.40;99.90;;;;;;5020974;28;20038;-81
2023/01/30 12:26:46;;;;;;;12.80;2.13;;;7.50;99.90;;;;;;5004858;28;20556;-79
2023/01/30 12:29:44;;;;;;;13.52;2.92;;;7.50;99.90;;;;;;5027015;28;20111;-77
2023/01/30 12:32:17;;;;;;;13.65;3.03;;;7.50;99.90;;;;;;5080905;28;20090;-77
2023/01/30 12:34:46;;;;;;;12.70;2.10;;;7.50;99.90;;;;;;5045554;28;20049;-81
2023/01/30 12:37:18;;;;;;;12.18;2.17;;;7.50;99.90;;;;;;5063290;28;20120;-79
2023/01/30 12:40:21;;;;;;;12.15;2.75;;;7.50;99.90;;;;;;5060518;28;20046;-82
2023/01/30 12:43:00;;;;;;;10.00;2.33;;;7.40;99.90;;;;;;5040106;28;20083;-80
2023/01/30 12:45:29;;;;;;;12.18;2.38;;;7.40;99.90;;;;;;5043280;28;20392;-79
2023/01/30 12:48:27;;;;;;;15.05;3.00;;;7.40;99.90;;;;;;5048593;28;20052;-80
2023/01/30 12:51:02;;;;;;;13.38;2.55;;;7.40;99.90;;;;;;5052972;28;20142;-81
2023/01/30 12:53:52;;;;;;;19.35;6.55;;;7.50;99.90;;;;;;5042777;28;20512;-76
2023/01/30 12:56:36;;;;;;;16.67;3.60;;;7.50;99.90;;;;;;5046353;28;20127;-81
2023/01/30 12:59:12;;;;;;;15.00;2.88;;;7.60;99.90;;;;;;5070833;28;20084;-81
2023/01/30 13:01:44;;;;;;;14.98;2.90;;;7.60;99.90;;;;;;5046683;28;20124;-80
2023/01/30 13:04:15;;;;;;;17.85;3.47;;;7.60;99.90;;;;;;5045240;28;20060;-80
2023/01/30 13:07:18;;;;;;;15.43;3.13;;;7.70;99.90;;;;;;5048558;28;20053;-83
2023/01/30 13:10:22;;;;;;;18.65;3.20;;;7.70;99.90;;;;;;5045785;28;20053;-82
2023/01/30 13:13:17;;;;;;;14.20;3.17;;;7.70;99.90;;;;;;5030484;28;20056;-80